Shoal Creek, Alabama
Current Conditions -  °F | °C
As of 11:53 AM on Saturday 20 Dec 2014 (Local Time) from KBHM Reporting Station
Overcast Overcast  
Wind Chill: 42°   Ceiling: 3000
Heat Index: 46°   Visibility: 10mi
Dew Point: 38°   Wind: 7mph
Humidity: 73%   Direction: 10°N
Pressure: 30.22"   Gusts: NA
Location:  33.3752°N, 86.7086°W
Report Text: KBHM 201753Z 01006KT 10SM BKN030 OVC041 08/03 A3022 RMK AO2 SLP232 T00780033 10083 20044 58012
Loading
Personal Weather Stations






























Interactive Weather Map New forecast layout! Learn more

10-Day Weather Forecast

Advertisements
Track Severe Weather on mobile